createdAt,value
2023-02-02T00:00:35.574Z,91.62
2023-02-02T00:03:03.423Z,90.71
2023-02-02T00:05:30.830Z,91.76
2023-02-02T00:07:58.147Z,90.75
2023-02-02T00:10:26.745Z,90.85
2023-02-02T00:12:54.280Z,90.62
2023-02-02T00:15:21.806Z,90.75
2023-02-02T00:17:49.133Z,90.61
2023-02-02T00:20:16.809Z,91.29
2023-02-02T00:22:44.088Z,90.41
2023-02-02T00:25:11.514Z,91.17
2023-02-02T00:27:41.199Z,90.57
2023-02-02T00:30:10.575Z,89.79
2023-02-02T00:32:39.641Z,89.56
2023-02-02T00:35:08.206Z,90.10
2023-02-02T00:37:35.725Z,89.30
2023-02-02T00:40:03.342Z,89.14
2023-02-02T00:42:30.780Z,89.98
2023-02-02T00:45:17.451Z,90.03
2023-02-02T00:47:47.413Z,89.76
2023-02-02T00:50:17.192Z,89.29
2023-02-02T00:52:44.449Z,88.62
2023-02-02T00:55:13.248Z,88.98
2023-02-02T00:57:41.528Z,89.17
2023-02-02T01:00:14.809Z,89.11
2023-02-02T01:02:42.123Z,88.52
2023-02-02T01:05:10.904Z,88.30
2023-02-02T01:07:38.523Z,87.82
2023-02-02T01:10:08.878Z,88.51
2023-02-02T01:12:36.136Z,88.30
2023-02-02T01:15:03.869Z,88.29
2023-02-02T01:17:34.175Z,88.57
2023-02-02T01:20:01.534Z,88.34
2023-02-02T01:22:29.120Z,88.79
2023-02-02T01:24:56.524Z,88.84
2023-02-02T01:27:23.892Z,87.95
2023-02-02T01:29:51.225Z,88.65
2023-02-02T01:32:18.827Z,88.10
2023-02-02T01:34:48.075Z,88.36
2023-02-02T01:37:15.318Z,88.34
2023-02-02T01:39:42.579Z,88.80
2023-02-02T01:42:14.203Z,88.98
2023-02-02T01:45:17.700Z,89.02
2023-02-02T01:47:49.074Z,89.12
2023-02-02T01:50:19.697Z,89.43
2023-02-02T01:52:49.854Z,89.26
2023-02-02T01:55:20.971Z,88.78
2023-02-02T01:57:53.001Z,88.85
2023-02-02T02:00:25.447Z,89.06
2023-02-02T02:02:56.287Z,88.70
2023-02-02T02:05:35.435Z,89.33
2023-02-02T02:08:10.531Z,89.14
2023-02-02T02:10:38.092Z,88.80
2023-02-02T02:13:06.501Z,89.26
2023-02-02T02:16:00.331Z,89.37
2023-02-02T02:18:36.853Z,89.18
2023-02-02T02:21:52.381Z,89.01
2023-02-02T02:25:26.927Z,89.19
2023-02-02T02:28:28.807Z,88.70
2023-02-02T02:31:40.052Z,88.49
2023-02-02T02:34:15.144Z,88.60
2023-02-02T02:36:49.799Z,88.87
2023-02-02T02:39:25.987Z,88.08
2023-02-02T02:41:59.259Z,88.17
2023-02-02T02:44:29.500Z,88.17
2023-02-02T02:46:58.477Z,87.80
2023-02-02T02:49:26.613Z,87.89
2023-02-02T02:51:55.363Z,87.56
2023-02-02T02:54:36.022Z,87.34
2023-02-02T02:57:37.300Z,88.10
2023-02-02T03:00:17.721Z,87.99
2023-02-02T03:02:54.303Z,87.12
2023-02-02T03:05:31.964Z,87.06
2023-02-02T03:08:08.754Z,86.97
2023-02-02T03:10:38.584Z,87.25
2023-02-02T03:13:09.282Z,87.00
2023-02-02T03:15:37.086Z,86.50
2023-02-02T03:18:06.033Z,87.18
2023-02-02T03:20:33.284Z,86.47
2023-02-02T03:23:00.582Z,86.43
2023-02-02T03:25:27.841Z,86.78
2023-02-02T03:27:55.423Z,87.15
2023-02-02T03:30:23.447Z,86.39
2023-02-02T03:32:52.905Z,87.41
2023-02-02T03:35:22.030Z,86.93
2023-02-02T03:37:49.847Z,86.93
2023-02-02T03:40:17.594Z,87.37
2023-02-02T03:42:45.017Z,86.63
2023-02-02T03:45:12.565Z,87.34
2023-02-02T03:47:39.887Z,87.32
2023-02-02T03:50:09.904Z,87.18
2023-02-02T03:52:38.809Z,87.18
2023-02-02T03:55:07.317Z,86.03
2023-02-02T03:57:34.650Z,86.70
2023-02-02T04:00:01.960Z,86.99
2023-02-02T04:02:39.666Z,86.54
2023-02-02T04:05:07.591Z,86.76
2023-02-02T04:07:34.991Z,86.40
2023-02-02T04:10:03.735Z,86.40
2023-02-02T04:12:31.322Z,86.19
2023-02-02T04:14:58.674Z,86.87
2023-02-02T04:17:26.078Z,86.85
2023-02-02T04:19:58.198Z,86.50
2023-02-02T04:22:26.081Z,86.62
2023-02-02T04:24:53.726Z,86.55
2023-02-02T04:27:22.595Z,87.16
2023-02-02T04:29:49.985Z,87.06
2023-02-02T04:32:18.539Z,87.59
2023-02-02T04:34:46.041Z,87.31
2023-02-02T04:37:13.822Z,87.56
2023-02-02T04:39:41.146Z,87.64
2023-02-02T04:42:08.722Z,87.71
2023-02-02T04:44:37.533Z,87.37
2023-02-02T04:47:04.868Z,87.24
2023-02-02T04:49:32.071Z,87.52
2023-02-02T04:51:59.425Z,88.09
2023-02-02T04:54:26.737Z,87.67
2023-02-02T04:56:54.337Z,88.09
2023-02-02T04:59:21.624Z,88.57
2023-02-02T05:01:51.115Z,87.70
2023-02-02T05:04:18.500Z,88.55
2023-02-02T05:06:45.975Z,88.65
2023-02-02T05:09:15.085Z,88.55
2023-02-02T05:11:44.657Z,88.35
2023-02-02T05:14:12.518Z,89.09
2023-02-02T05:16:39.873Z,88.36
2023-02-02T05:19:08.570Z,88.37
2023-02-02T05:21:35.872Z,89.05
2023-02-02T05:24:03.931Z,89.13
2023-02-02T05:26:31.349Z,88.57
2023-02-02T05:28:58.580Z,89.18
2023-02-02T05:31:25.948Z,88.98
2023-02-02T05:33:53.456Z,89.00
2023-02-02T05:36:22.223Z,89.73
2023-02-02T05:38:49.489Z,89.62
2023-02-02T05:41:16.862Z,88.83
2023-02-02T05:43:44.177Z,89.57
2023-02-02T05:46:12.243Z,89.66
2023-02-02T05:48:39.849Z,89.12
2023-02-02T05:51:11.539Z,89.44
2023-02-02T05:53:40.270Z,88.59
2023-02-02T05:56:07.760Z,89.08
2023-02-02T05:58:35.101Z,89.16
2023-02-02T06:01:02.738Z,88.87
2023-02-02T06:03:29.989Z,89.12
2023-02-02T06:05:57.278Z,89.17
2023-02-02T06:08:24.723Z,88.97
2023-02-02T06:10:53.433Z,88.56
2023-02-02T06:13:22.312Z,89.16
2023-02-02T06:15:50.035Z,88.77
2023-02-02T06:18:17.677Z,88.20
2023-02-02T06:20:47.098Z,88.76
2023-02-02T06:23:14.425Z,88.26
2023-02-02T06:25:41.875Z,88.31
2023-02-02T06:28:10.675Z,88.89
2023-02-02T06:30:38.013Z,88.80
2023-02-02T06:33:05.437Z,87.96
2023-02-02T06:35:32.808Z,88.25
2023-02-02T06:38:00.346Z,88.51
2023-02-02T06:40:28.126Z,88.36
2023-02-02T06:42:59.013Z,88.43
2023-02-02T06:45:28.774Z,88.51
2023-02-02T06:48:02.190Z,88.12
2023-02-02T06:50:29.773Z,88.60
2023-02-02T06:52:57.115Z,87.55
2023-02-02T06:55:24.692Z,87.76
2023-02-02T06:57:56.738Z,87.75
2023-02-02T07:00:24.314Z,88.04
2023-02-02T07:02:53.204Z,87.68
2023-02-02T07:05:21.784Z,87.48
2023-02-02T07:07:49.357Z,87.57
2023-02-02T07:11:13.073Z,87.40
2023-02-02T07:13:05.215Z,88.22
2023-02-02T07:15:32.708Z,87.87
2023-02-02T07:18:01.416Z,88.20
2023-02-02T07:20:29.043Z,88.25
2023-02-02T07:22:56.784Z,87.71
2023-02-02T07:25:24.558Z,87.23
2023-02-02T07:27:53.634Z,87.60
2023-02-02T07:30:22.043Z,87.18
2023-02-02T07:32:49.974Z,87.84
2023-02-02T07:35:18.734Z,88.03
2023-02-02T07:37:52.160Z,87.82
2023-02-02T07:40:20.127Z,87.53
2023-02-02T07:42:48.061Z,86.99
2023-02-02T07:45:26.783Z,87.18
2023-02-02T07:47:58.773Z,87.80
2023-02-02T07:50:28.983Z,87.83
2023-02-02T07:52:56.533Z,87.07
2023-02-02T07:55:23.866Z,87.85
2023-02-02T07:57:52.254Z,87.77
2023-02-02T08:00:20.760Z,87.53
2023-02-02T08:02:49.300Z,86.67
2023-02-02T08:05:16.999Z,87.55
2023-02-02T08:07:45.683Z,86.42
2023-02-02T08:10:13.222Z,86.83
2023-02-02T08:12:40.798Z,86.89
2023-02-02T08:15:10.668Z,86.76
2023-02-02T08:17:37.971Z,86.61
2023-02-02T08:20:06.399Z,86.55
2023-02-02T08:22:33.707Z,86.31
2023-02-02T08:25:02.297Z,85.59
2023-02-02T08:27:30.209Z,85.87
2023-02-02T08:29:57.541Z,85.79
2023-02-02T08:32:24.952Z,85.66
2023-02-02T08:34:52.430Z,85.60
2023-02-02T08:37:20.001Z,84.67
2023-02-02T08:39:47.718Z,84.50
2023-02-02T08:42:16.425Z,85.39
2023-02-02T08:46:03.353Z,84.88
2023-02-02T08:47:31.537Z,84.25
2023-02-02T08:49:59.206Z,84.02
2023-02-02T08:52:26.652Z,83.51
2023-02-02T08:54:54.005Z,83.51
2023-02-02T08:57:22.649Z,83.02
2023-02-02T08:59:50.267Z,83.07
2023-02-02T09:02:18.789Z,83.41
2023-02-02T09:04:47.202Z,82.71
2023-02-02T09:07:14.499Z,82.17
2023-02-02T09:09:42.457Z,82.54
2023-02-02T09:12:09.867Z,82.58
2023-02-02T09:14:38.461Z,81.77
2023-02-02T09:17:06.045Z,82.60
2023-02-02T09:19:33.335Z,82.44
2023-02-02T09:22:00.534Z,82.31
2023-02-02T09:24:28.008Z,81.26
2023-02-02T09:26:55.254Z,81.27
2023-02-02T09:29:22.976Z,80.95
2023-02-02T09:31:51.727Z,81.82
2023-02-02T09:34:19.415Z,81.71
2023-02-02T09:36:47.549Z,81.37
2023-02-02T09:39:16.778Z,81.42
2023-02-02T09:42:22.061Z,80.45
2023-02-02T09:44:58.736Z,80.37
2023-02-02T09:47:36.415Z,80.58
2023-02-02T09:50:13.554Z,80.78
2023-02-02T09:52:44.184Z,80.90
2023-02-02T09:55:16.149Z,81.20
2023-02-02T09:57:47.564Z,80.75
2023-02-02T10:00:25.989Z,81.29
2023-02-02T10:03:00.849Z,80.45
2023-02-02T10:05:31.554Z,81.36
2023-02-02T10:08:05.664Z,81.32
2023-02-02T10:10:41.203Z,80.92
2023-02-02T10:13:16.251Z,80.65
2023-02-02T10:15:52.491Z,80.78
2023-02-02T10:18:28.638Z,81.24
2023-02-02T10:20:59.225Z,81.40
2023-02-02T10:23:31.367Z,81.36
2023-02-02T10:26:08.820Z,80.64
2023-02-02T10:28:44.261Z,80.53
2023-02-02T10:31:35.730Z,80.68
2023-02-02T10:34:14.010Z,80.78
2023-02-02T10:37:01.698Z,80.46
2023-02-02T10:39:42.550Z,80.20
2023-02-02T10:42:18.472Z,80.96
2023-02-02T10:44:50.640Z,79.92
2023-02-02T10:47:25.799Z,79.91
2023-02-02T10:50:10.871Z,79.87
2023-02-02T10:52:40.975Z,79.78
2023-02-02T10:55:20.431Z,79.20
2023-02-02T10:57:53.862Z,79.55
2023-02-02T11:00:24.184Z,79.23
2023-02-02T11:02:53.297Z,78.38
2023-02-02T11:05:42.473Z,79.48
2023-02-02T11:08:17.870Z,79.54
2023-02-02T11:10:46.412Z,79.23
2023-02-02T11:13:23.593Z,79.31
2023-02-02T11:15:50.821Z,79.24
2023-02-02T11:18:29.525Z,78.91
2023-02-02T11:20:58.420Z,78.42
2023-02-02T11:23:28.647Z,78.58
2023-02-02T11:26:01.245Z,78.56
2023-02-02T11:28:33.063Z,78.48
2023-02-02T11:31:00.528Z,79.02
2023-02-02T11:33:30.001Z,78.40
2023-02-02T11:36:00.127Z,79.11
2023-02-02T11:38:28.339Z,79.52
2023-02-02T11:41:03.928Z,79.25
2023-02-02T11:43:36.365Z,78.77
2023-02-02T11:46:06.468Z,78.45
2023-02-02T11:48:36.196Z,78.77
2023-02-02T11:51:08.193Z,78.74
2023-02-02T11:53:40.915Z,78.72
2023-02-02T11:56:17.872Z,79.08
2023-02-02T11:58:48.666Z,78.26
2023-02-02T12:01:26.288Z,78.24
2023-02-02T12:03:55.143Z,78.73
2023-02-02T12:06:25.703Z,78.20
2023-02-02T12:08:57.147Z,77.78
2023-02-02T12:11:41.993Z,77.96
2023-02-02T12:14:25.520Z,78.79
2023-02-02T12:17:06.449Z,77.91
2023-02-02T12:19:52.254Z,78.50
2023-02-02T12:22:34.470Z,78.25
2023-02-02T12:25:19.346Z,78.12
2023-02-02T12:27:57.688Z,78.50
2023-02-02T12:30:35.358Z,77.85
2023-02-02T12:33:23.635Z,77.66
2023-02-02T12:36:19.259Z,78.24
2023-02-02T12:39:18.947Z,78.18
2023-02-02T12:41:57.941Z,78.18
2023-02-02T12:44:37.929Z,78.35
2023-02-02T12:47:18.646Z,78.67
2023-02-02T12:50:02.419Z,78.51
2023-02-02T12:52:56.020Z,77.73
2023-02-02T12:55:35.944Z,77.93
2023-02-02T12:58:10.486Z,78.08
2023-02-02T13:01:03.752Z,78.62
2023-02-02T13:03:41.008Z,78.21
2023-02-02T13:06:41.489Z,78.77
2023-02-02T13:09:13.660Z,78.68
2023-02-02T13:11:51.094Z,79.52
2023-02-02T13:14:23.785Z,79.27
2023-02-02T13:16:57.373Z,78.99
2023-02-02T13:19:33.073Z,79.34
2023-02-02T13:22:03.475Z,79.68
2023-02-02T13:24:34.968Z,79.55
2023-02-02T13:27:06.515Z,80.05
2023-02-02T13:29:39.059Z,80.11
2023-02-02T13:32:20.059Z,80.14
2023-02-02T13:34:51.147Z,80.24
2023-02-02T13:37:25.560Z,80.28
2023-02-02T13:39:58.568Z,79.82
2023-02-02T13:42:37.185Z,80.82
2023-02-02T13:45:24.452Z,80.23
2023-02-02T13:47:59.401Z,80.46
2023-02-02T13:50:30.545Z,81.00
2023-02-02T13:53:18.633Z,80.16
2023-02-02T13:56:03.553Z,80.69
2023-02-02T13:58:55.514Z,80.28
2023-02-02T14:01:24.289Z,80.72
2023-02-02T14:03:54.508Z,80.53
2023-02-02T14:06:23.939Z,81.10
2023-02-02T14:08:55.476Z,81.27
2023-02-02T14:11:27.488Z,80.58
2023-02-02T14:14:18.443Z,81.71
2023-02-02T14:16:50.826Z,81.03
2023-02-02T14:19:54.074Z,82.03
2023-02-02T14:22:43.329Z,81.23
2023-02-02T14:25:48.774Z,82.12
2023-02-02T14:28:41.017Z,81.44
2023-02-02T14:31:29.461Z,82.05
2023-02-02T14:34:36.552Z,82.08
2023-02-02T14:37:34.846Z,82.49
2023-02-02T14:40:32.480Z,82.21
2023-02-02T14:43:30.619Z,82.02
2023-02-02T14:46:21.184Z,82.29
2023-02-02T14:49:07.189Z,81.88
2023-02-02T14:51:46.213Z,82.40
2023-02-02T14:54:21.614Z,83.06
2023-02-02T14:56:55.447Z,82.24
2023-02-02T14:59:27.045Z,82.40
2023-02-02T15:02:01.535Z,82.40
2023-02-02T15:04:30.257Z,82.32
2023-02-02T15:07:32.346Z,83.04
2023-02-02T15:10:04.107Z,83.28
2023-02-02T15:12:37.636Z,82.76
2023-02-02T15:15:14.106Z,82.80
2023-02-02T15:18:00.903Z,82.92
2023-02-02T15:20:32.367Z,82.86
2023-02-02T15:23:04.863Z,82.96
2023-02-02T15:25:40.308Z,82.80
2023-02-02T15:28:20.295Z,83.06
2023-02-02T15:30:51.699Z,83.22
2023-02-02T15:33:28.644Z,83.47
2023-02-02T15:35:59.848Z,82.70
2023-02-02T15:38:34.215Z,82.66
2023-02-02T15:41:07.996Z,83.37
2023-02-02T15:43:35.903Z,83.80
2023-02-02T15:46:07.032Z,82.80
2023-02-02T15:48:35.329Z,83.39
2023-02-02T15:51:06.603Z,83.76
2023-02-02T15:53:47.669Z,83.83
2023-02-02T15:56:26.569Z,83.21
2023-02-02T15:58:55.935Z,83.34
2023-02-02T16:01:24.657Z,83.04
2023-02-02T16:03:57.442Z,84.02
2023-02-02T16:06:25.069Z,83.57
2023-02-02T16:08:52.485Z,84.05
2023-02-02T16:11:25.543Z,83.28
2023-02-02T16:14:01.387Z,83.47
2023-02-02T16:16:30.718Z,83.33
2023-02-02T16:19:11.912Z,84.24
2023-02-02T16:21:44.839Z,84.04
2023-02-02T16:24:15.936Z,84.37
2023-02-02T16:26:45.624Z,83.87
2023-02-02T16:29:18.592Z,84.08
2023-02-02T16:31:47.340Z,84.23
2023-02-02T16:34:19.469Z,84.33
2023-02-02T16:37:05.688Z,83.72
2023-02-02T16:39:33.043Z,83.92
2023-02-02T16:42:10.645Z,83.59
2023-02-02T16:44:40.237Z,84.66
2023-02-02T16:47:19.319Z,83.77
2023-02-02T16:49:48.175Z,83.74
2023-02-02T16:52:18.374Z,84.00
2023-02-02T16:54:52.987Z,84.19
2023-02-02T16:57:25.396Z,84.40
2023-02-02T16:59:55.337Z,84.60
2023-02-02T17:02:29.934Z,84.95
2023-02-02T17:05:01.458Z,84.11
2023-02-02T17:07:31.469Z,84.57
2023-02-02T17:10:20.594Z,84.72
2023-02-02T17:12:49.381Z,84.57
2023-02-02T17:15:37.693Z,85.01
2023-02-02T17:18:05.667Z,84.12
2023-02-02T17:20:34.791Z,84.66
2023-02-02T17:23:09.980Z,84.10
2023-02-02T17:25:40.794Z,84.59
2023-02-02T17:28:12.879Z,84.31
2023-02-02T17:30:41.971Z,84.89
2023-02-02T17:33:12.040Z,84.11
2023-02-02T17:35:53.050Z,84.28
2023-02-02T17:38:22.800Z,84.14
2023-02-02T17:41:09.740Z,84.69
2023-02-02T17:43:38.704Z,84.75
2023-02-02T17:46:06.133Z,85.29
2023-02-02T17:48:34.525Z,85.12
2023-02-02T17:51:06.474Z,84.49
2023-02-02T17:53:34.722Z,85.17
2023-02-02T17:56:02.243Z,85.21
2023-02-02T17:58:29.650Z,84.52
2023-02-02T18:00:59.346Z,84.92
2023-02-02T18:03:28.868Z,84.63
2023-02-02T18:05:57.931Z,84.88
2023-02-02T18:08:25.316Z,85.43
2023-02-02T18:10:52.941Z,85.36
2023-02-02T18:13:22.952Z,85.54
2023-02-02T18:15:51.452Z,85.25
2023-02-02T18:18:20.404Z,85.05
2023-02-02T18:20:49.398Z,85.77
2023-02-02T18:23:17.999Z,84.97
2023-02-02T18:25:45.392Z,86.07
2023-02-02T18:28:16.739Z,86.56
2023-02-02T18:30:44.949Z,86.57
2023-02-02T18:33:13.261Z,87.13
2023-02-02T18:35:43.312Z,86.82
2023-02-02T18:38:11.199Z,87.49
2023-02-02T18:40:38.772Z,87.66
2023-02-02T18:43:06.251Z,86.76
2023-02-02T18:45:33.815Z,87.74
2023-02-02T18:48:01.107Z,87.67
2023-02-02T18:50:28.764Z,87.80
2023-02-02T18:52:58.104Z,87.79
2023-02-02T18:55:25.886Z,87.31
2023-02-02T18:57:53.435Z,87.53
2023-02-02T19:00:22.292Z,87.60
2023-02-02T19:02:49.590Z,87.75
2023-02-02T19:05:35.671Z,87.19
2023-02-02T19:08:05.956Z,87.50
2023-02-02T19:10:33.387Z,88.52
2023-02-02T19:13:14.838Z,88.09
2023-02-02T19:15:42.596Z,88.21
2023-02-02T19:18:15.501Z,89.12
2023-02-02T19:20:43.658Z,88.27
2023-02-02T19:23:14.891Z,88.66
2023-02-02T19:25:45.655Z,89.39
2023-02-02T19:28:21.414Z,88.61
2023-02-02T19:30:49.532Z,89.61
2023-02-02T19:33:17.805Z,89.41
2023-02-02T19:35:46.826Z,89.10
2023-02-02T19:38:17.834Z,89.32
2023-02-02T19:40:45.329Z,89.78
2023-02-02T19:43:24.555Z,89.60
2023-02-02T19:45:52.878Z,90.17
2023-02-02T19:48:24.260Z,89.34
2023-02-02T19:50:52.626Z,89.47
2023-02-02T19:53:24.112Z,90.04
2023-02-02T19:55:52.425Z,90.46
2023-02-02T19:58:22.321Z,90.02
2023-02-02T20:00:52.128Z,90.13
2023-02-02T20:03:21.639Z,90.69
2023-02-02T20:05:50.540Z,90.29
2023-02-02T20:08:31.380Z,90.92
2023-02-02T20:11:01.910Z,90.10
2023-02-02T20:13:36.723Z,90.84
2023-02-02T20:16:05.407Z,90.92
2023-02-02T20:18:41.199Z,90.81
2023-02-02T20:21:20.336Z,90.60
2023-02-02T20:23:49.202Z,90.23
2023-02-02T20:26:26.125Z,90.15
2023-02-02T20:28:55.817Z,90.58
2023-02-02T20:31:25.830Z,90.57
2023-02-02T20:33:55.225Z,90.78
2023-02-02T20:36:37.943Z,90.84
2023-02-02T20:39:25.317Z,90.93
2023-02-02T20:42:12.021Z,91.06
2023-02-02T20:44:39.330Z,90.37
2023-02-02T20:47:08.203Z,90.68
2023-02-02T20:49:37.434Z,90.85
2023-02-02T20:52:10.815Z,90.78
2023-02-02T20:54:39.988Z,91.17
2023-02-02T20:57:07.311Z,90.26
2023-02-02T20:59:34.825Z,90.83
2023-02-02T21:02:02.350Z,90.62
2023-02-02T21:04:29.773Z,90.70
2023-02-02T21:06:59.506Z,90.89
2023-02-02T21:09:27.460Z,90.33
2023-02-02T21:11:56.215Z,91.07
2023-02-02T21:14:23.511Z,90.97
2023-02-02T21:16:50.937Z,91.05
2023-02-02T21:19:19.412Z,91.03
2023-02-02T21:21:46.837Z,90.55
2023-02-02T21:24:13.974Z,90.21
2023-02-02T21:26:41.441Z,90.32
2023-02-02T21:29:12.517Z,91.06
2023-02-02T21:31:43.102Z,90.65
2023-02-02T21:34:14.220Z,91.04
2023-02-02T21:36:45.527Z,90.81
2023-02-02T21:39:21.978Z,90.89
2023-02-02T21:41:50.187Z,90.28
2023-02-02T21:44:21.476Z,90.11
2023-02-02T21:46:51.992Z,91.15
2023-02-02T21:49:24.098Z,90.75
2023-02-02T21:51:54.684Z,90.46
2023-02-02T21:54:23.791Z,90.33
2023-02-02T21:56:52.296Z,91.05
2023-02-02T21:59:22.649Z,90.68
2023-02-02T22:01:51.554Z,90.57
2023-02-02T22:04:21.246Z,90.27
2023-02-02T22:06:50.766Z,90.27
2023-02-02T22:09:21.422Z,90.65
2023-02-02T22:11:52.060Z,91.30
2023-02-02T22:14:26.009Z,90.60
2023-02-02T22:16:54.007Z,91.00
2023-02-02T22:19:34.229Z,90.64
2023-02-02T22:22:15.956Z,91.25
2023-02-02T22:24:44.963Z,90.67
2023-02-02T22:27:19.997Z,90.49
2023-02-02T22:29:49.268Z,90.53
2023-02-02T22:32:16.611Z,90.95
2023-02-02T22:34:43.943Z,90.26
2023-02-02T22:37:11.251Z,90.91
2023-02-02T22:39:42.854Z,91.10
2023-02-02T22:42:10.780Z,90.70
2023-02-02T22:44:38.060Z,90.36
2023-02-02T22:47:06.795Z,90.41
2023-02-02T22:49:34.075Z,91.29
2023-02-02T22:52:01.353Z,90.96
2023-02-02T22:54:29.032Z,90.83
2023-02-02T22:56:56.273Z,90.89
2023-02-02T22:59:23.666Z,90.38
2023-02-02T23:01:51.065Z,90.41
2023-02-02T23:04:19.583Z,90.45
2023-02-02T23:06:47.040Z,90.75
2023-02-02T23:09:14.314Z,90.69
2023-02-02T23:11:41.636Z,90.62
2023-02-02T23:14:09.216Z,91.00
2023-02-02T23:16:36.621Z,90.44
2023-02-02T23:19:03.940Z,90.83
2023-02-02T23:21:32.699Z,90.82
2023-02-02T23:23:59.959Z,91.29
2023-02-02T23:26:27.275Z,90.62
2023-02-02T23:28:54.886Z,90.67
2023-02-02T23:31:22.407Z,90.51
2023-02-02T23:33:50.552Z,90.77
2023-02-02T23:36:17.749Z,91.00
2023-02-02T23:38:46.944Z,90.61
2023-02-02T23:41:14.155Z,90.78
2023-02-02T23:43:42.767Z,90.58
2023-02-02T23:46:10.435Z,90.83
2023-02-02T23:48:38.145Z,91.44
2023-02-02T23:51:06.224Z,91.51
2023-02-02T23:53:33.543Z,91.68
2023-02-02T23:56:02.227Z,91.16
2023-02-02T23:58:29.556Z,90.78
